createdAt,value
2018-06-20T00:00:06.103Z,13.20
2018-06-20T00:05:01.638Z,13.10
2018-06-20T00:09:57.257Z,13.10
2018-06-20T00:12:24.918Z,13.10
2018-06-20T00:14:52.856Z,13.10
2018-06-20T00:17:20.464Z,13.00
2018-06-20T00:19:48.313Z,13.00
2018-06-20T00:24:43.779Z,13.10
2018-06-20T00:27:11.575Z,13.00
2018-06-20T00:29:39.508Z,12.90
2018-06-20T00:32:07.383Z,12.90
2018-06-20T00:34:35.001Z,12.80
2018-06-20T00:41:58.192Z,12.70
2018-06-20T00:49:21.214Z,12.60
2018-06-20T00:51:49.104Z,12.60
2018-06-20T00:54:16.804Z,12.50
2018-06-20T00:59:12.339Z,12.50
2018-06-20T01:01:40.156Z,12.50
2018-06-20T01:04:07.861Z,12.50
2018-06-20T01:09:07.658Z,12.40
2018-06-20T01:11:36.116Z,12.40
2018-06-20T01:14:03.994Z,12.40
2018-06-20T01:16:31.657Z,12.40
2018-06-20T01:18:59.371Z,12.30
2018-06-20T01:21:27.175Z,12.30
2018-06-20T01:23:56.020Z,12.30
2018-06-20T01:26:23.913Z,12.20
2018-06-20T01:28:51.571Z,12.20
2018-06-20T01:31:19.431Z,12.20
2018-06-20T01:33:47.385Z,12.20
2018-06-20T01:36:15.408Z,12.10
2018-06-20T01:38:43.330Z,12.10
2018-06-20T01:41:11.503Z,12.00
2018-06-20T01:43:39.209Z,11.90
2018-06-20T01:46:07.272Z,11.90
2018-06-20T01:48:35.098Z,11.90
2018-06-20T01:51:02.853Z,11.90
2018-06-20T01:53:30.876Z,11.90
2018-06-20T01:55:58.665Z,11.80
2018-06-20T02:00:54.520Z,11.80
2018-06-20T02:03:22.160Z,11.80
2018-06-20T02:10:46.046Z,11.70
2018-06-20T02:13:13.859Z,11.70
2018-06-20T02:15:42.231Z,11.70
2018-06-20T02:18:10.290Z,11.60
2018-06-20T02:20:38.641Z,11.60
2018-06-20T02:23:06.453Z,11.60
2018-06-20T02:25:34.090Z,11.60
2018-06-20T02:30:29.783Z,11.60
2018-06-20T02:32:57.738Z,11.60
2018-06-20T02:35:25.564Z,11.60
2018-06-20T02:37:53.487Z,11.60
2018-06-20T02:40:21.241Z,11.60
2018-06-20T02:42:49.212Z,11.50
2018-06-20T02:45:17.005Z,11.50
2018-06-20T02:47:45.107Z,11.50
2018-06-20T02:50:14.039Z,11.60
2018-06-20T02:52:42.114Z,11.60
2018-06-20T02:55:10.232Z,11.60
2018-06-20T02:57:38.083Z,11.60
2018-06-20T03:00:05.920Z,11.60
2018-06-20T03:02:33.847Z,11.70
2018-06-20T03:05:01.461Z,11.80
2018-06-20T03:12:24.715Z,11.90
2018-06-20T03:14:52.600Z,11.90
2018-06-20T03:17:20.404Z,11.90
2018-06-20T03:19:48.047Z,11.90
2018-06-20T03:22:15.851Z,11.90
2018-06-20T03:24:43.577Z,11.90
2018-06-20T03:29:39.292Z,12.00
2018-06-20T03:32:07.040Z,12.00
2018-06-20T03:34:34.766Z,12.10
2018-06-20T03:37:02.905Z,12.10
2018-06-20T03:39:30.961Z,12.20
2018-06-20T03:41:59.119Z,12.30
2018-06-20T03:44:27.048Z,12.40
2018-06-20T03:46:54.839Z,12.40
2018-06-20T03:49:22.662Z,12.50
2018-06-20T03:51:50.315Z,12.60
2018-06-20T03:54:18.082Z,12.70
2018-06-20T03:56:45.956Z,12.70
2018-06-20T03:59:13.900Z,12.80
2018-06-20T04:04:09.691Z,12.80
2018-06-20T04:06:37.368Z,12.90
2018-06-20T04:11:36.159Z,13.00
2018-06-20T04:14:04.105Z,13.10
2018-06-20T04:16:31.814Z,13.20
2018-06-20T04:18:59.669Z,13.40
2018-06-20T04:21:27.476Z,13.50
2018-06-20T04:23:55.551Z,13.60
2018-06-20T04:26:23.718Z,13.60
2018-06-20T04:28:51.511Z,13.70
2018-06-20T04:31:19.312Z,13.80
2018-06-20T04:33:47.332Z,13.90
2018-06-20T04:36:15.033Z,14.00
2018-06-20T04:38:42.948Z,14.10
2018-06-20T04:41:10.853Z,14.10
2018-06-20T04:43:38.799Z,14.20
2018-06-20T04:46:06.583Z,14.30
2018-06-20T04:48:34.164Z,14.40
2018-06-20T04:51:02.211Z,14.50
2018-06-20T04:53:30.244Z,14.60
2018-06-20T04:55:58.162Z,14.70
2018-06-20T04:58:25.983Z,14.80
2018-06-20T05:00:53.914Z,14.90
2018-06-20T05:08:17.471Z,15.20
2018-06-20T05:10:45.553Z,15.30
2018-06-20T05:13:13.501Z,15.40
2018-06-20T05:15:41.700Z,15.50
2018-06-20T05:18:09.642Z,15.60
2018-06-20T05:20:37.365Z,15.80
2018-06-20T05:23:05.062Z,15.90
2018-06-20T05:25:32.722Z,16.10
2018-06-20T05:28:00.330Z,16.30
2018-06-20T05:30:28.107Z,16.40
2018-06-20T05:37:51.603Z,16.70
2018-06-20T05:45:14.518Z,17.30
2018-06-20T05:47:42.261Z,17.50
2018-06-20T05:50:10.011Z,17.70
2018-06-20T05:52:38.139Z,17.80
2018-06-20T05:55:07.602Z,18.10
2018-06-20T05:57:35.294Z,18.30
2018-06-20T06:00:03.084Z,18.40
2018-06-20T06:02:31.072Z,18.50
2018-06-20T06:07:26.300Z,18.70
2018-06-20T06:09:54.098Z,19.10
2018-06-20T06:12:21.819Z,19.90
2018-06-20T06:14:49.862Z,20.80
2018-06-20T06:17:18.015Z,21.40
2018-06-20T06:19:45.741Z,21.90
2018-06-20T06:22:13.651Z,22.60
2018-06-20T06:24:41.416Z,23.40
2018-06-20T06:27:09.070Z,24.00
2018-06-20T06:29:36.757Z,24.70
2018-06-20T06:32:04.537Z,24.70
2018-06-20T06:37:00.087Z,24.90
2018-06-20T06:39:27.825Z,25.20
2018-06-20T06:44:23.641Z,25.90
2018-06-20T06:46:52.201Z,26.30
2018-06-20T06:49:20.630Z,26.10
2018-06-20T06:51:50.129Z,26.40
2018-06-20T06:54:17.806Z,26.60
2018-06-20T06:56:45.496Z,26.40
2018-06-20T06:59:13.185Z,26.00
2018-06-20T07:01:41.372Z,25.20
2018-06-20T07:04:09.313Z,24.70
2018-06-20T07:06:37.095Z,24.60
2018-06-20T07:09:06.788Z,24.80
2018-06-20T07:11:35.709Z,25.20
2018-06-20T07:16:31.190Z,25.30
2018-06-20T07:18:58.972Z,25.30
2018-06-20T07:21:26.735Z,24.90
2018-06-20T07:23:55.000Z,24.90
2018-06-20T07:26:22.828Z,25.10
2018-06-20T07:28:50.549Z,25.40
2018-06-20T07:31:18.196Z,25.50
2018-06-20T07:33:46.456Z,25.30
2018-06-20T07:36:14.207Z,25.40
2018-06-20T07:38:42.819Z,25.60
2018-06-20T07:41:10.508Z,25.50
2018-06-20T07:43:38.272Z,25.20
2018-06-20T07:48:33.826Z,25.10
2018-06-20T07:51:01.527Z,25.30
2018-06-20T07:53:29.489Z,25.50
2018-06-20T07:55:57.296Z,25.80
2018-06-20T07:58:31.419Z,26.00
2018-06-20T08:01:05.080Z,26.30
2018-06-20T08:03:38.426Z,26.60
2018-06-20T08:06:11.725Z,26.80
2018-06-20T08:08:45.242Z,27.00
2018-06-20T08:11:18.752Z,27.30
2018-06-20T08:13:52.285Z,27.60
2018-06-20T08:16:25.711Z,27.50
2018-06-20T08:18:58.968Z,27.50
2018-06-20T08:21:26.814Z,27.20
2018-06-20T08:23:55.243Z,27.00
2018-06-20T08:26:23.293Z,26.70
2018-06-20T08:31:18.837Z,26.70
2018-06-20T08:33:46.623Z,26.90
2018-06-20T08:36:14.562Z,27.20
2018-06-20T08:38:42.453Z,27.10
2018-06-20T08:41:10.464Z,27.40
2018-06-20T08:43:38.485Z,27.80
2018-06-20T08:46:06.524Z,28.10
2018-06-20T08:48:34.416Z,28.50
2018-06-20T08:51:02.544Z,28.50
2018-06-20T08:53:31.380Z,28.50
2018-06-20T08:55:59.044Z,28.60
2018-06-20T08:58:27.040Z,28.20
2018-06-20T09:01:01.714Z,28.00
2018-06-20T09:06:03.567Z,26.90
2018-06-20T09:09:35.473Z,26.50
2018-06-20T09:12:08.994Z,26.30
2018-06-20T09:14:42.544Z,26.00
2018-06-20T09:17:15.876Z,26.00
2018-06-20T09:19:45.289Z,26.30
2018-06-20T09:22:13.676Z,26.80
2018-06-20T09:24:41.553Z,27.40
2018-06-20T09:27:09.344Z,27.70
2018-06-20T09:29:37.221Z,27.70
2018-06-20T09:32:05.121Z,27.30
2018-06-20T09:34:33.101Z,26.80
2018-06-20T09:37:01.071Z,26.40
2018-06-20T09:39:28.897Z,26.30
2018-06-20T09:41:56.552Z,26.10
2018-06-20T09:44:24.553Z,26.00
2018-06-20T09:46:52.516Z,25.90
2018-06-20T09:49:20.457Z,26.20
2018-06-20T09:51:48.617Z,26.70
2018-06-20T09:54:16.499Z,27.30
2018-06-20T09:56:44.241Z,27.90
2018-06-20T09:59:17.746Z,27.80
2018-06-20T10:01:51.125Z,27.50
2018-06-20T10:04:24.321Z,27.50
2018-06-20T10:06:57.811Z,27.70
2018-06-20T10:09:31.080Z,28.00
2018-06-20T10:12:04.318Z,28.30
2018-06-20T10:14:32.752Z,28.50
2018-06-20T10:17:00.484Z,28.70
2018-06-20T10:19:28.213Z,28.60
2018-06-20T10:21:56.084Z,28.40
2018-06-20T10:24:24.961Z,28.00
2018-06-20T10:26:53.116Z,27.60
2018-06-20T10:29:20.908Z,27.50
2018-06-20T10:31:49.163Z,27.80
2018-06-20T10:34:17.496Z,28.00
2018-06-20T10:36:45.512Z,28.20
2018-06-20T10:39:13.255Z,28.10
2018-06-20T10:41:41.519Z,27.90
2018-06-20T10:44:11.929Z,28.00
2018-06-20T10:46:45.931Z,28.30
2018-06-20T10:54:10.194Z,29.00
2018-06-20T10:56:43.747Z,29.30
2018-06-20T11:01:50.337Z,29.30
2018-06-20T11:04:23.564Z,29.20
2018-06-20T11:06:57.069Z,29.30
2018-06-20T11:09:30.327Z,29.30
2018-06-20T11:12:03.641Z,29.10
2018-06-20T11:14:31.848Z,29.20
2018-06-20T11:16:59.516Z,29.30
2018-06-20T11:19:27.477Z,29.40
2018-06-20T11:21:55.855Z,29.60
2018-06-20T11:24:23.810Z,29.80
2018-06-20T11:26:51.480Z,29.90
2018-06-20T11:29:19.206Z,30.10
2018-06-20T11:31:46.948Z,30.20
2018-06-20T11:39:11.980Z,29.90
2018-06-20T11:44:07.750Z,30.10
2018-06-20T11:46:42.252Z,30.20
2018-06-20T11:49:10.398Z,30.40
2018-06-20T11:51:38.075Z,30.50
2018-06-20T11:56:36.676Z,30.20
2018-06-20T12:01:43.426Z,29.60
2018-06-20T12:04:16.663Z,29.50
2018-06-20T12:06:50.224Z,29.40
2018-06-20T12:09:23.674Z,29.30
2018-06-20T12:11:57.021Z,29.10
2018-06-20T12:14:30.347Z,29.10
2018-06-20T12:16:57.570Z,29.20
2018-06-20T12:19:30.929Z,29.30
2018-06-20T12:22:04.452Z,29.50
2018-06-20T12:24:37.786Z,29.60
2018-06-20T12:27:11.112Z,29.80
2018-06-20T12:29:44.412Z,29.90
2018-06-20T12:32:17.974Z,29.60
2018-06-20T12:34:51.514Z,29.60
2018-06-20T12:37:25.213Z,29.60
2018-06-20T12:39:58.422Z,29.70
2018-06-20T12:42:31.674Z,29.90
2018-06-20T12:45:01.334Z,29.90
2018-06-20T12:47:33.928Z,29.90
2018-06-20T12:52:34.964Z,30.00
2018-06-20T12:55:02.730Z,30.00
2018-06-20T12:57:30.543Z,30.10
2018-06-20T12:59:58.674Z,30.00
2018-06-20T13:02:26.346Z,29.80
2018-06-20T13:04:53.985Z,29.60
2018-06-20T13:07:21.662Z,29.50
2018-06-20T13:09:49.439Z,29.30
2018-06-20T13:14:46.034Z,29.50
2018-06-20T13:17:13.787Z,29.60
2018-06-20T13:19:41.594Z,29.70
2018-06-20T13:22:09.680Z,29.80
2018-06-20T13:24:37.366Z,29.70
2018-06-20T13:27:05.063Z,29.80
2018-06-20T13:29:32.904Z,29.80
2018-06-20T13:32:06.357Z,29.90
2018-06-20T13:34:39.548Z,29.80
2018-06-20T13:37:12.765Z,29.70
2018-06-20T13:42:21.131Z,29.80
2018-06-20T13:44:48.869Z,30.00
2018-06-20T13:47:22.432Z,30.10
2018-06-20T13:49:54.740Z,30.20
2018-06-20T13:52:22.921Z,30.30
2018-06-20T13:54:50.694Z,30.20
2018-06-20T13:57:18.435Z,30.10
2018-06-20T13:59:46.351Z,30.00
2018-06-20T14:02:14.427Z,29.80
2018-06-20T14:04:42.412Z,29.50
2018-06-20T14:07:10.244Z,29.20
2018-06-20T14:09:37.929Z,29.00
2018-06-20T14:12:05.830Z,28.90
2018-06-20T14:17:02.101Z,29.00
2018-06-20T14:19:35.327Z,29.20
2018-06-20T14:22:03.199Z,29.20
2018-06-20T14:24:30.909Z,29.20
2018-06-20T14:26:58.493Z,29.00
2018-06-20T14:29:30.705Z,29.00
2018-06-20T14:32:04.258Z,29.00
2018-06-20T14:34:37.810Z,29.10
2018-06-20T14:37:11.125Z,29.20
2018-06-20T14:39:44.337Z,29.30
2018-06-20T14:42:17.666Z,29.40
2018-06-20T14:44:45.564Z,29.40
2018-06-20T14:49:40.928Z,29.40
2018-06-20T14:52:08.781Z,29.20
2018-06-20T14:54:36.460Z,29.10
2018-06-20T14:57:04.158Z,29.20
2018-06-20T14:59:31.828Z,29.30
2018-06-20T15:01:59.497Z,29.40
2018-06-20T15:06:54.980Z,29.50
2018-06-20T15:09:22.700Z,29.50
2018-06-20T15:11:50.397Z,29.60
2018-06-20T15:14:18.092Z,29.60
2018-06-20T15:19:19.038Z,29.50
2018-06-20T15:21:46.735Z,29.40
2018-06-20T15:29:21.505Z,29.20
2018-06-20T15:31:54.858Z,29.20
2018-06-20T15:34:28.353Z,29.20
2018-06-20T15:37:01.781Z,29.10
2018-06-20T15:41:57.830Z,29.10
2018-06-20T15:46:53.365Z,29.10
2018-06-20T15:49:21.529Z,29.10
2018-06-20T15:56:44.531Z,29.00
2018-06-20T15:59:12.284Z,28.90
2018-06-20T16:01:40.766Z,28.90
2018-06-20T16:04:08.891Z,29.00
2018-06-20T16:06:37.364Z,29.00
2018-06-20T16:09:12.431Z,29.00
2018-06-20T16:11:40.099Z,29.00
2018-06-20T16:19:09.747Z,28.80
2018-06-20T16:21:43.183Z,28.80
2018-06-20T16:24:16.651Z,28.80
2018-06-20T16:26:49.845Z,28.80
2018-06-20T16:29:23.113Z,28.80
2018-06-20T16:31:50.928Z,28.70
2018-06-20T16:36:47.316Z,28.60
2018-06-20T16:39:15.168Z,28.60
2018-06-20T16:41:43.082Z,28.50
2018-06-20T16:44:11.381Z,28.40
2018-06-20T16:46:39.389Z,28.20
2018-06-20T16:49:07.652Z,28.10
2018-06-20T16:51:36.549Z,28.00
2018-06-20T16:54:06.250Z,27.90
2018-06-20T16:56:35.618Z,27.70
2018-06-20T16:59:04.547Z,27.70
2018-06-20T17:01:37.836Z,27.50
2018-06-20T17:04:06.321Z,27.40
2018-06-20T17:06:35.402Z,27.10
2018-06-20T17:09:05.430Z,27.00
2018-06-20T17:11:33.915Z,26.90
2018-06-20T17:14:07.626Z,26.90
2018-06-20T17:16:41.775Z,26.90
2018-06-20T17:19:15.300Z,26.90
2018-06-20T17:21:48.583Z,26.90
2018-06-20T17:24:21.873Z,26.60
2018-06-20T17:26:49.819Z,26.40
2018-06-20T17:31:47.101Z,25.90
2018-06-20T17:34:16.238Z,25.80
2018-06-20T17:36:46.178Z,25.60
2018-06-20T17:39:14.361Z,25.40
2018-06-20T17:41:42.319Z,25.20
2018-06-20T17:44:10.415Z,25.00
2018-06-20T17:49:14.623Z,24.80
2018-06-20T17:51:43.410Z,24.60
2018-06-20T17:54:12.095Z,24.50
2018-06-20T17:56:40.828Z,24.30
2018-06-20T17:59:10.154Z,24.20
2018-06-20T18:01:38.082Z,24.10
2018-06-20T18:06:39.636Z,24.00
2018-06-20T18:09:13.351Z,23.90
2018-06-20T18:11:49.091Z,23.90
2018-06-20T18:16:57.078Z,23.80
2018-06-20T18:19:26.594Z,23.70
2018-06-20T18:21:54.374Z,23.50
2018-06-20T18:26:51.205Z,23.30
2018-06-20T18:29:21.517Z,23.30
2018-06-20T18:31:49.417Z,23.20
2018-06-20T18:34:18.403Z,23.10
2018-06-20T18:36:47.083Z,23.00
2018-06-20T18:39:15.549Z,22.90
2018-06-20T18:41:43.536Z,22.80
2018-06-20T18:44:12.381Z,22.70
2018-06-20T18:46:40.778Z,22.60
2018-06-20T18:49:08.666Z,22.50
2018-06-20T18:51:38.470Z,22.40
2018-06-20T18:54:06.521Z,22.30
2018-06-20T18:56:34.612Z,22.20
2018-06-20T18:59:08.090Z,22.10
2018-06-20T19:01:41.990Z,22.00
2018-06-20T19:04:15.394Z,21.90
2018-06-20T19:06:49.027Z,21.80
2018-06-20T19:09:18.600Z,21.70
2018-06-20T19:11:46.839Z,21.50
2018-06-20T19:16:42.478Z,21.30
2018-06-20T19:19:10.492Z,21.20
2018-06-20T19:21:38.454Z,21.10
2018-06-20T19:24:06.443Z,21.10
2018-06-20T19:26:35.631Z,21.00
2018-06-20T19:29:03.687Z,20.90
2018-06-20T19:31:31.719Z,20.80
2018-06-20T19:34:00.282Z,20.70
2018-06-20T19:41:24.265Z,20.40
2018-06-20T19:43:57.574Z,20.30
2018-06-20T19:48:53.194Z,20.10
2018-06-20T19:51:21.064Z,20.10
2018-06-20T19:53:48.914Z,20.00
2018-06-20T19:56:16.757Z,20.00
2018-06-20T19:58:44.761Z,19.90
2018-06-20T20:01:12.922Z,19.80
2018-06-20T20:03:40.602Z,19.70
2018-06-20T20:08:36.382Z,19.60
2018-06-20T20:11:04.249Z,19.50
2018-06-20T20:13:32.575Z,19.40
2018-06-20T20:16:00.212Z,19.20
2018-06-20T20:18:28.339Z,19.20
2018-06-20T20:20:56.477Z,19.10
2018-06-20T20:23:24.282Z,19.00
2018-06-20T20:25:52.055Z,18.90
2018-06-20T20:28:20.914Z,18.70
2018-06-20T20:33:16.938Z,18.60
2018-06-20T20:38:12.716Z,18.40
2018-06-20T20:40:40.630Z,18.40
2018-06-20T20:43:08.691Z,18.30
2018-06-20T20:45:36.562Z,18.20
2018-06-20T20:48:04.629Z,18.20
2018-06-20T20:50:32.608Z,18.10
2018-06-20T20:53:01.559Z,18.00
2018-06-20T20:55:29.306Z,17.90
2018-06-20T20:57:57.528Z,17.90
2018-06-20T21:00:25.619Z,17.80
2018-06-20T21:05:21.230Z,17.60
2018-06-20T21:07:48.953Z,17.60
2018-06-20T21:10:16.657Z,17.60
2018-06-20T21:12:44.606Z,17.50
2018-06-20T21:15:13.479Z,17.40
2018-06-20T21:17:41.214Z,17.40
2018-06-20T21:22:37.010Z,17.20
2018-06-20T21:25:04.709Z,17.20
2018-06-20T21:27:32.691Z,17.20
2018-06-20T21:30:01.010Z,17.10
2018-06-20T21:32:28.682Z,17.00
2018-06-20T21:34:56.611Z,17.00
2018-06-20T21:37:24.695Z,16.80
2018-06-20T21:39:52.509Z,16.80
2018-06-20T21:44:48.624Z,16.70
2018-06-20T21:47:16.601Z,16.60
2018-06-20T21:49:44.274Z,16.60
2018-06-20T21:52:12.014Z,16.50
2018-06-20T21:54:40.002Z,16.50
2018-06-20T21:57:07.990Z,16.40
2018-06-20T21:59:35.617Z,16.40
2018-06-20T22:02:03.343Z,16.30
2018-06-20T22:04:31.116Z,16.20
2018-06-20T22:06:58.902Z,16.10
2018-06-20T22:09:27.818Z,16.10
2018-06-20T22:11:55.664Z,16.00
2018-06-20T22:14:25.471Z,16.00
2018-06-20T22:16:53.443Z,15.90
2018-06-20T22:19:21.157Z,15.90
2018-06-20T22:21:49.131Z,15.80
2018-06-20T22:24:17.068Z,15.80
2018-06-20T22:29:13.026Z,15.70
2018-06-20T22:31:40.741Z,15.60
2018-06-20T22:34:08.436Z,15.60
2018-06-20T22:36:36.732Z,15.50
2018-06-20T22:39:07.051Z,15.40
2018-06-20T22:41:35.652Z,15.40
2018-06-20T22:44:03.729Z,15.30
2018-06-20T22:46:31.388Z,15.20
2018-06-20T22:48:59.187Z,15.10
2018-06-20T22:51:27.096Z,15.10
2018-06-20T22:53:55.031Z,15.00
2018-06-20T22:56:23.056Z,14.90
2018-06-20T22:58:50.825Z,14.90
2018-06-20T23:01:18.811Z,14.80
2018-06-20T23:03:46.868Z,14.80
2018-06-20T23:06:14.712Z,14.70
2018-06-20T23:08:42.456Z,14.60
2018-06-20T23:11:10.419Z,14.60
2018-06-20T23:16:05.934Z,14.50
2018-06-20T23:21:01.524Z,14.30
2018-06-20T23:23:29.297Z,14.30
2018-06-20T23:25:57.061Z,14.20
2018-06-20T23:28:24.867Z,14.20
2018-06-20T23:33:20.754Z,14.10
2018-06-20T23:35:48.556Z,14.10
2018-06-20T23:40:45.121Z,13.90
2018-06-20T23:43:13.040Z,13.90
2018-06-20T23:45:40.722Z,13.80
2018-06-20T23:48:08.418Z,13.80
2018-06-20T23:50:36.134Z,13.70
2018-06-20T23:53:03.858Z,13.70
2018-06-20T23:55:31.484Z,13.70
